Briefing drone pour Aix-les-bains

Rechercher une autre localisation

Conditions de vol :


Nous sommes le : Mercredi 08 décembre 2021
Il est 22:39 UTC (23:39 LT)

Lever de soleil : 06:38 UTC (07:38 LT)
Coucher de soleil : 16:18 UTC (17:18 LT)

Météo

L'essentiel des conditions de vol

VIGILANCE MÉTÉO FRANCE - Savoie (73)
Vigilance Jaune : Avalanches / Neige-verglas
METAR de LFLB
LFLB 082230Z AUTO VRB02KT 8000 BKN012 BKN017 BKN030 03/03 Q1006

Date d'émission: 08/12/2021
Heure d'émission: 22:30 UTC
Vent: Variable 2 KT (4 km/h)
Visibilité horizontale: 8000 m
Plafond :
- Nuages morcelés à 1200ft (366m)
- Nuages morcelés à 1700ft (518m)
- Nuages morcelés à 3000ft (914m)
Température: 3 °C
Point de rosée: 3 °C
Humidité: 100%
Pression (QNH): 1006 hPa
TAF de LFLB
LFLB 082005Z 0820/0915 CNL

Conditions prévues :

Heure d'émission : Bulletin éffectué le 08 à 20:00 UTC
Prévision : Valide du 08 a 20:00 UTC au 09 a 15:00 UTC
Nuages : à 0ft (0 m)
WEBCAM POUR AIX-LES-BAINS

Réglementation

Voler en sécurité

CARTES AERONAUTIQUE 1/500.000
CARTES VAC (LFLB)
SUP AIP




Chargement des AIP...
NOTAM (AIX-LES-BAINS + Terrain à proximité / FIR )




Chargement des NOTAMS...
CONTACT PREFECTURE 73


Avertissement : Les données mises à disposition sont indicatives. Oxygène Drone ne pourra être tenu responsable de dégâts causés aux biens et aux personnes.